sensor_id;sensor_type;location;lat;lon;timestamp;P1;durP1;ratioP1;P2;durP2;ratioP2
71496;SDS011;59317;53.218;5.730;2023-05-07T00:01:14;30.83;;;16.57;;
71496;SDS011;59317;53.218;5.730;2023-05-07T00:03:40;29.63;;;15.97;;
71496;SDS011;59317;53.218;5.730;2023-05-07T00:06:06;29.50;;;16.15;;
71496;SDS011;59317;53.218;5.730;2023-05-07T00:08:32;31.38;;;16.58;;
71496;SDS011;59317;53.218;5.730;2023-05-07T00:10:58;30.02;;;16.83;;
71496;SDS011;59317;53.218;5.730;2023-05-07T00:13:24;29.93;;;16.87;;
71496;SDS011;59317;53.218;5.730;2023-05-07T00:15:50;31.03;;;17.00;;
71496;SDS011;59317;53.218;5.730;2023-05-07T00:18:16;30.00;;;16.60;;
71496;SDS011;59317;53.218;5.730;2023-05-07T00:20:45;30.50;;;16.93;;
71496;SDS011;59317;53.218;5.730;2023-05-07T00:23:11;29.05;;;16.08;;
71496;SDS011;59317;53.218;5.730;2023-05-07T00:25:37;29.77;;;17.27;;
71496;SDS011;59317;53.218;5.730;2023-05-07T00:28:03;30.63;;;16.88;;
71496;SDS011;59317;53.218;5.730;2023-05-07T00:30:29;28.85;;;16.13;;
71496;SDS011;59317;53.218;5.730;2023-05-07T00:32:55;27.83;;;16.45;;
71496;SDS011;59317;53.218;5.730;2023-05-07T00:35:21;29.52;;;17.33;;
71496;SDS011;59317;53.218;5.730;2023-05-07T00:37:48;30.13;;;15.38;;
71496;SDS011;59317;53.218;5.730;2023-05-07T00:40:14;29.88;;;15.98;;
71496;SDS011;59317;53.218;5.730;2023-05-07T00:42:40;27.40;;;16.17;;
71496;SDS011;59317;53.218;5.730;2023-05-07T00:45:06;26.65;;;15.48;;
71496;SDS011;59317;53.218;5.730;2023-05-07T00:47:32;29.17;;;15.88;;
71496;SDS011;59317;53.218;5.730;2023-05-07T00:49:58;25.27;;;14.90;;
71496;SDS011;59317;53.218;5.730;2023-05-07T00:52:25;27.15;;;14.02;;
71496;SDS011;59317;53.218;5.730;2023-05-07T00:54:51;25.67;;;14.37;;
71496;SDS011;59317;53.218;5.730;2023-05-07T00:57:18;26.20;;;14.30;;
71496;SDS011;59317;53.218;5.730;2023-05-07T00:59:45;27.05;;;14.80;;
71496;SDS011;59317;53.218;5.730;2023-05-07T01:02:11;26.13;;;14.45;;
71496;SDS011;59317;53.218;5.730;2023-05-07T01:04:37;25.55;;;13.13;;
71496;SDS011;59317;53.218;5.730;2023-05-07T01:07:03;26.65;;;14.73;;
71496;SDS011;59317;53.218;5.730;2023-05-07T01:09:29;28.00;;;15.07;;
71496;SDS011;59317;53.218;5.730;2023-05-07T01:11:55;28.08;;;15.20;;
71496;SDS011;59317;53.218;5.730;2023-05-07T01:14:22;30.35;;;15.77;;
71496;SDS011;59317;53.218;5.730;2023-05-07T01:16:49;28.65;;;15.15;;
71496;SDS011;59317;53.218;5.730;2023-05-07T01:19:16;30.10;;;15.63;;
71496;SDS011;59317;53.218;5.730;2023-05-07T01:21:44;28.38;;;14.35;;
71496;SDS011;59317;53.218;5.730;2023-05-07T01:24:11;25.63;;;13.25;;
71496;SDS011;59317;53.218;5.730;2023-05-07T01:26:37;30.02;;;15.88;;
71496;SDS011;59317;53.218;5.730;2023-05-07T01:29:03;25.77;;;13.77;;
71496;SDS011;59317;53.218;5.730;2023-05-07T01:31:29;28.20;;;15.53;;
71496;SDS011;59317;53.218;5.730;2023-05-07T01:33:55;27.83;;;14.73;;
71496;SDS011;59317;53.218;5.730;2023-05-07T01:36:22;25.33;;;13.63;;
71496;SDS011;59317;53.218;5.730;2023-05-07T01:38:51;23.73;;;11.75;;
71496;SDS011;59317;53.218;5.730;2023-05-07T01:41:17;22.85;;;12.07;;
71496;SDS011;59317;53.218;5.730;2023-05-07T01:43:44;25.45;;;13.35;;
71496;SDS011;59317;53.218;5.730;2023-05-07T01:46:10;25.15;;;12.85;;
71496;SDS011;59317;53.218;5.730;2023-05-07T01:48:37;25.67;;;13.68;;
71496;SDS011;59317;53.218;5.730;2023-05-07T01:51:03;28.25;;;14.90;;
71496;SDS011;59317;53.218;5.730;2023-05-07T01:53:35;26.55;;;14.63;;
71496;SDS011;59317;53.218;5.730;2023-05-07T01:56:01;19.60;;;10.47;;
71496;SDS011;59317;53.218;5.730;2023-05-07T01:58:27;23.20;;;13.27;;
71496;SDS011;59317;53.218;5.730;2023-05-07T02:00:53;24.77;;;13.07;;
71496;SDS011;59317;53.218;5.730;2023-05-07T02:03:19;24.97;;;13.47;;
71496;SDS011;59317;53.218;5.730;2023-05-07T02:05:45;26.50;;;13.03;;
71496;SDS011;59317;53.218;5.730;2023-05-07T02:08:11;27.73;;;14.73;;
71496;SDS011;59317;53.218;5.730;2023-05-07T02:10:37;18.83;;;9.57;;
71496;SDS011;59317;53.218;5.730;2023-05-07T02:13:03;25.02;;;13.23;;
71496;SDS011;59317;53.218;5.730;2023-05-07T02:15:29;30.50;;;15.98;;
71496;SDS011;59317;53.218;5.730;2023-05-07T02:18:02;29.35;;;16.25;;
71496;SDS011;59317;53.218;5.730;2023-05-07T02:20:28;26.85;;;14.00;;
71496;SDS011;59317;53.218;5.730;2023-05-07T02:22:54;25.23;;;11.80;;
71496;SDS011;59317;53.218;5.730;2023-05-07T02:25:20;22.77;;;12.00;;
71496;SDS011;59317;53.218;5.730;2023-05-07T02:27:46;29.08;;;16.85;;
71496;SDS011;59317;53.218;5.730;2023-05-07T02:30:13;26.17;;;13.60;;
71496;SDS011;59317;53.218;5.730;2023-05-07T02:32:39;25.00;;;13.73;;
71496;SDS011;59317;53.218;5.730;2023-05-07T02:35:05;23.13;;;13.05;;
71496;SDS011;59317;53.218;5.730;2023-05-07T02:37:31;26.60;;;14.50;;
71496;SDS011;59317;53.218;5.730;2023-05-07T02:39:57;23.88;;;13.45;;
71496;SDS011;59317;53.218;5.730;2023-05-07T02:42:23;25.20;;;13.32;;
71496;SDS011;59317;53.218;5.730;2023-05-07T02:44:49;25.73;;;13.93;;
71496;SDS011;59317;53.218;5.730;2023-05-07T02:47:15;26.80;;;14.82;;
71496;SDS011;59317;53.218;5.730;2023-05-07T02:49:41;22.20;;;12.75;;
71496;SDS011;59317;53.218;5.730;2023-05-07T02:52:07;23.27;;;13.63;;
71496;SDS011;59317;53.218;5.730;2023-05-07T02:54:33;26.90;;;14.73;;
71496;SDS011;59317;53.218;5.730;2023-05-07T02:56:59;20.00;;;11.38;;
71496;SDS011;59317;53.218;5.730;2023-05-07T02:59:28;19.10;;;10.23;;
71496;SDS011;59317;53.218;5.730;2023-05-07T03:01:55;29.67;;;16.45;;
71496;SDS011;59317;53.218;5.730;2023-05-07T03:04:20;25.02;;;13.38;;
71496;SDS011;59317;53.218;5.730;2023-05-07T03:06:46;18.48;;;10.07;;
71496;SDS011;59317;53.218;5.730;2023-05-07T03:09:12;21.20;;;11.10;;
71496;SDS011;59317;53.218;5.730;2023-05-07T03:11:39;27.55;;;15.60;;
71496;SDS011;59317;53.218;5.730;2023-05-07T03:14:05;26.55;;;12.98;;
71496;SDS011;59317;53.218;5.730;2023-05-07T03:16:31;22.63;;;10.85;;
71496;SDS011;59317;53.218;5.730;2023-05-07T03:18:57;26.15;;;14.48;;
71496;SDS011;59317;53.218;5.730;2023-05-07T03:21:22;29.27;;;16.57;;
71496;SDS011;59317;53.218;5.730;2023-05-07T03:23:49;27.20;;;15.30;;
71496;SDS011;59317;53.218;5.730;2023-05-07T03:26:14;24.40;;;12.93;;
71496;SDS011;59317;53.218;5.730;2023-05-07T03:28:40;31.13;;;16.70;;
71496;SDS011;59317;53.218;5.730;2023-05-07T03:31:06;28.02;;;15.20;;
71496;SDS011;59317;53.218;5.730;2023-05-07T03:33:33;21.90;;;11.80;;
71496;SDS011;59317;53.218;5.730;2023-05-07T03:35:59;25.45;;;13.30;;
71496;SDS011;59317;53.218;5.730;2023-05-07T03:38:25;19.10;;;10.43;;
71496;SDS011;59317;53.218;5.730;2023-05-07T03:40:51;21.77;;;11.67;;
71496;SDS011;59317;53.218;5.730;2023-05-07T03:43:17;21.67;;;9.77;;
71496;SDS011;59317;53.218;5.730;2023-05-07T03:45:43;21.23;;;11.50;;
71496;SDS011;59317;53.218;5.730;2023-05-07T03:48:09;21.63;;;11.35;;
71496;SDS011;59317;53.218;5.730;2023-05-07T03:50:35;26.77;;;14.98;;
71496;SDS011;59317;53.218;5.730;2023-05-07T03:53:01;29.35;;;14.27;;
71496;SDS011;59317;53.218;5.730;2023-05-07T03:55:27;25.77;;;13.80;;
71496;SDS011;59317;53.218;5.730;2023-05-07T03:57:53;23.75;;;13.10;;
71496;SDS011;59317;53.218;5.730;2023-05-07T04:00:19;24.95;;;12.95;;
71496;SDS011;59317;53.218;5.730;2023-05-07T04:02:46;25.90;;;13.10;;
71496;SDS011;59317;53.218;5.730;2023-05-07T04:05:12;34.13;;;17.88;;
71496;SDS011;59317;53.218;5.730;2023-05-07T04:07:39;26.10;;;15.38;;
71496;SDS011;59317;53.218;5.730;2023-05-07T04:10:05;25.27;;;12.80;;
71496;SDS011;59317;53.218;5.730;2023-05-07T04:12:31;25.88;;;14.27;;
71496;SDS011;59317;53.218;5.730;2023-05-07T04:14:57;30.45;;;15.90;;
71496;SDS011;59317;53.218;5.730;2023-05-07T04:17:23;27.75;;;13.70;;
71496;SDS011;59317;53.218;5.730;2023-05-07T04:19:49;27.20;;;13.50;;
71496;SDS011;59317;53.218;5.730;2023-05-07T04:22:15;22.43;;;11.80;;
71496;SDS011;59317;53.218;5.730;2023-05-07T04:24:41;29.10;;;14.67;;
71496;SDS011;59317;53.218;5.730;2023-05-07T04:27:07;22.80;;;12.05;;
71496;SDS011;59317;53.218;5.730;2023-05-07T04:29:33;29.20;;;15.15;;
71496;SDS011;59317;53.218;5.730;2023-05-07T04:32:00;20.80;;;10.83;;
71496;SDS011;59317;53.218;5.730;2023-05-07T04:34:26;23.25;;;10.82;;
71496;SDS011;59317;53.218;5.730;2023-05-07T04:36:52;20.35;;;11.15;;
71496;SDS011;59317;53.218;5.730;2023-05-07T04:39:18;21.53;;;12.03;;
71496;SDS011;59317;53.218;5.730;2023-05-07T04:41:44;20.90;;;11.83;;
71496;SDS011;59317;53.218;5.730;2023-05-07T04:44:10;21.80;;;11.60;;
71496;SDS011;59317;53.218;5.730;2023-05-07T04:46:36;21.55;;;10.75;;
71496;SDS011;59317;53.218;5.730;2023-05-07T04:49:02;20.00;;;10.50;;
71496;SDS011;59317;53.218;5.730;2023-05-07T04:51:28;24.13;;;11.93;;
71496;SDS011;59317;53.218;5.730;2023-05-07T04:53:54;23.63;;;12.00;;
71496;SDS011;59317;53.218;5.730;2023-05-07T04:56:20;21.15;;;11.88;;
71496;SDS011;59317;53.218;5.730;2023-05-07T04:58:46;23.17;;;11.98;;
71496;SDS011;59317;53.218;5.730;2023-05-07T05:01:12;24.93;;;12.67;;
71496;SDS011;59317;53.218;5.730;2023-05-07T05:03:38;25.97;;;13.80;;
71496;SDS011;59317;53.218;5.730;2023-05-07T05:06:04;22.47;;;11.80;;
71496;SDS011;59317;53.218;5.730;2023-05-07T05:08:30;22.02;;;11.93;;
71496;SDS011;59317;53.218;5.730;2023-05-07T05:10:56;30.57;;;15.80;;
71496;SDS011;59317;53.218;5.730;2023-05-07T05:13:22;22.67;;;12.00;;
71496;SDS011;59317;53.218;5.730;2023-05-07T05:15:48;30.90;;;14.60;;
71496;SDS011;59317;53.218;5.730;2023-05-07T05:18:14;23.45;;;11.50;;
71496;SDS011;59317;53.218;5.730;2023-05-07T05:20:40;24.98;;;12.90;;
71496;SDS011;59317;53.218;5.730;2023-05-07T05:23:07;28.45;;;15.10;;
71496;SDS011;59317;53.218;5.730;2023-05-07T05:25:33;21.98;;;12.07;;
71496;SDS011;59317;53.218;5.730;2023-05-07T05:27:59;22.63;;;11.25;;
71496;SDS011;59317;53.218;5.730;2023-05-07T05:30:26;25.42;;;12.75;;
71496;SDS011;59317;53.218;5.730;2023-05-07T05:32:52;21.70;;;11.13;;
71496;SDS011;59317;53.218;5.730;2023-05-07T05:35:18;26.47;;;13.97;;
71496;SDS011;59317;53.218;5.730;2023-05-07T05:37:44;27.87;;;14.60;;
71496;SDS011;59317;53.218;5.730;2023-05-07T05:40:10;34.67;;;17.45;;
71496;SDS011;59317;53.218;5.730;2023-05-07T05:42:36;26.42;;;13.55;;
71496;SDS011;59317;53.218;5.730;2023-05-07T05:45:02;29.92;;;15.43;;
71496;SDS011;59317;53.218;5.730;2023-05-07T05:47:28;39.20;;;18.60;;
71496;SDS011;59317;53.218;5.730;2023-05-07T05:49:55;24.70;;;12.85;;
71496;SDS011;59317;53.218;5.730;2023-05-07T05:52:21;27.10;;;13.43;;
71496;SDS011;59317;53.218;5.730;2023-05-07T05:54:48;31.30;;;14.88;;
71496;SDS011;59317;53.218;5.730;2023-05-07T05:57:15;34.30;;;17.97;;
71496;SDS011;59317;53.218;5.730;2023-05-07T05:59:41;27.77;;;13.17;;
71496;SDS011;59317;53.218;5.730;2023-05-07T06:02:07;38.67;;;19.42;;
71496;SDS011;59317;53.218;5.730;2023-05-07T06:04:33;31.30;;;14.57;;
71496;SDS011;59317;53.218;5.730;2023-05-07T06:06:59;29.47;;;15.17;;
71496;SDS011;59317;53.218;5.730;2023-05-07T06:09:25;42.83;;;20.88;;
71496;SDS011;59317;53.218;5.730;2023-05-07T06:11:52;26.48;;;13.40;;
71496;SDS011;59317;53.218;5.730;2023-05-07T06:14:18;33.67;;;17.40;;
71496;SDS011;59317;53.218;5.730;2023-05-07T06:16:44;30.75;;;14.75;;
71496;SDS011;59317;53.218;5.730;2023-05-07T06:19:10;32.17;;;15.40;;
71496;SDS011;59317;53.218;5.730;2023-05-07T06:21:36;34.63;;;17.42;;
71496;SDS011;59317;53.218;5.730;2023-05-07T06:24:02;32.90;;;15.07;;
71496;SDS011;59317;53.218;5.730;2023-05-07T06:26:28;35.57;;;17.43;;
71496;SDS011;59317;53.218;5.730;2023-05-07T06:28:54;36.38;;;18.38;;
71496;SDS011;59317;53.218;5.730;2023-05-07T06:31:20;33.72;;;17.15;;
71496;SDS011;59317;53.218;5.730;2023-05-07T06:33:46;39.00;;;20.55;;
71496;SDS011;59317;53.218;5.730;2023-05-07T06:36:12;28.25;;;14.55;;
71496;SDS011;59317;53.218;5.730;2023-05-07T06:38:38;29.10;;;14.75;;
71496;SDS011;59317;53.218;5.730;2023-05-07T06:41:05;25.77;;;13.65;;
71496;SDS011;59317;53.218;5.730;2023-05-07T06:43:31;36.13;;;17.23;;
71496;SDS011;59317;53.218;5.730;2023-05-07T06:45:57;32.22;;;16.83;;
71496;SDS011;59317;53.218;5.730;2023-05-07T06:48:23;27.45;;;14.45;;
71496;SDS011;59317;53.218;5.730;2023-05-07T06:50:49;34.53;;;17.33;;
71496;SDS011;59317;53.218;5.730;2023-05-07T06:53:15;31.23;;;15.48;;
71496;SDS011;59317;53.218;5.730;2023-05-07T06:55:41;26.40;;;13.90;;
71496;SDS011;59317;53.218;5.730;2023-05-07T06:58:07;22.27;;;11.13;;
71496;SDS011;59317;53.218;5.730;2023-05-07T07:00:33;27.95;;;13.95;;
71496;SDS011;59317;53.218;5.730;2023-05-07T07:02:59;21.50;;;12.65;;
71496;SDS011;59317;53.218;5.730;2023-05-07T07:05:25;20.85;;;10.82;;
71496;SDS011;59317;53.218;5.730;2023-05-07T07:07:51;19.70;;;10.85;;
71496;SDS011;59317;53.218;5.730;2023-05-07T07:10:18;19.05;;;10.23;;
71496;SDS011;59317;53.218;5.730;2023-05-07T07:12:44;24.83;;;12.20;;
71496;SDS011;59317;53.218;5.730;2023-05-07T07:15:10;23.50;;;12.88;;
71496;SDS011;59317;53.218;5.730;2023-05-07T07:17:36;23.87;;;13.17;;
71496;SDS011;59317;53.218;5.730;2023-05-07T07:20:03;23.00;;;12.83;;
71496;SDS011;59317;53.218;5.730;2023-05-07T07:22:29;27.47;;;14.90;;
71496;SDS011;59317;53.218;5.730;2023-05-07T07:24:55;21.23;;;12.00;;
71496;SDS011;59317;53.218;5.730;2023-05-07T07:27:21;25.50;;;12.65;;
71496;SDS011;59317;53.218;5.730;2023-05-07T07:29:47;24.02;;;11.88;;
71496;SDS011;59317;53.218;5.730;2023-05-07T07:32:13;27.55;;;13.45;;
71496;SDS011;59317;53.218;5.730;2023-05-07T07:34:39;20.67;;;11.38;;
71496;SDS011;59317;53.218;5.730;2023-05-07T07:37:05;19.15;;;10.30;;
71496;SDS011;59317;53.218;5.730;2023-05-07T07:39:34;20.83;;;11.10;;
71496;SDS011;59317;53.218;5.730;2023-05-07T07:42:00;22.27;;;12.35;;
71496;SDS011;59317;53.218;5.730;2023-05-07T07:44:26;27.77;;;14.93;;
71496;SDS011;59317;53.218;5.730;2023-05-07T07:46:52;23.17;;;12.70;;
71496;SDS011;59317;53.218;5.730;2023-05-07T07:49:19;27.03;;;15.63;;
71496;SDS011;59317;53.218;5.730;2023-05-07T07:51:45;23.02;;;11.80;;
71496;SDS011;59317;53.218;5.730;2023-05-07T07:54:11;20.85;;;11.77;;
71496;SDS011;59317;53.218;5.730;2023-05-07T07:56:37;24.40;;;13.17;;
71496;SDS011;59317;53.218;5.730;2023-05-07T07:59:03;21.95;;;12.52;;
71496;SDS011;59317;53.218;5.730;2023-05-07T08:01:30;21.45;;;11.60;;
71496;SDS011;59317;53.218;5.730;2023-05-07T08:03:56;20.07;;;11.37;;
71496;SDS011;59317;53.218;5.730;2023-05-07T08:06:27;22.45;;;11.40;;
71496;SDS011;59317;53.218;5.730;2023-05-07T08:08:53;20.25;;;12.35;;
71496;SDS011;59317;53.218;5.730;2023-05-07T08:11:20;21.38;;;12.80;;
71496;SDS011;59317;53.218;5.730;2023-05-07T08:13:46;21.20;;;12.27;;
71496;SDS011;59317;53.218;5.730;2023-05-07T08:16:12;24.58;;;14.43;;
71496;SDS011;59317;53.218;5.730;2023-05-07T08:18:39;19.27;;;10.18;;
71496;SDS011;59317;53.218;5.730;2023-05-07T08:21:05;19.27;;;11.02;;
71496;SDS011;59317;53.218;5.730;2023-05-07T08:23:31;22.45;;;13.00;;
71496;SDS011;59317;53.218;5.730;2023-05-07T08:25:57;22.00;;;11.30;;
71496;SDS011;59317;53.218;5.730;2023-05-07T08:28:23;19.80;;;10.63;;
71496;SDS011;59317;53.218;5.730;2023-05-07T08:30:50;19.65;;;11.55;;
71496;SDS011;59317;53.218;5.730;2023-05-07T08:33:16;20.23;;;11.63;;
71496;SDS011;59317;53.218;5.730;2023-05-07T08:35:42;17.80;;;9.83;;
71496;SDS011;59317;53.218;5.730;2023-05-07T08:38:09;16.53;;;9.47;;
71496;SDS011;59317;53.218;5.730;2023-05-07T08:40:37;18.17;;;9.90;;
71496;SDS011;59317;53.218;5.730;2023-05-07T08:43:04;18.23;;;10.02;;
71496;SDS011;59317;53.218;5.730;2023-05-07T08:45:30;16.67;;;10.07;;
71496;SDS011;59317;53.218;5.730;2023-05-07T08:47:58;18.13;;;9.50;;
71496;SDS011;59317;53.218;5.730;2023-05-07T08:50:25;17.63;;;10.33;;
71496;SDS011;59317;53.218;5.730;2023-05-07T08:52:51;19.03;;;11.47;;
71496;SDS011;59317;53.218;5.730;2023-05-07T08:55:17;18.23;;;10.03;;
71496;SDS011;59317;53.218;5.730;2023-05-07T08:57:44;21.38;;;13.00;;
71496;SDS011;59317;53.218;5.730;2023-05-07T09:00:10;15.85;;;9.32;;
71496;SDS011;59317;53.218;5.730;2023-05-07T09:02:36;19.42;;;11.02;;
71496;SDS011;59317;53.218;5.730;2023-05-07T09:05:02;18.33;;;11.40;;
71496;SDS011;59317;53.218;5.730;2023-05-07T09:07:29;16.88;;;9.77;;
71496;SDS011;59317;53.218;5.730;2023-05-07T09:09:56;16.83;;;8.73;;
71496;SDS011;59317;53.218;5.730;2023-05-07T09:12:25;17.00;;;10.05;;
71496;SDS011;59317;53.218;5.730;2023-05-07T09:14:51;17.70;;;10.40;;
71496;SDS011;59317;53.218;5.730;2023-05-07T09:17:17;19.15;;;11.27;;
71496;SDS011;59317;53.218;5.730;2023-05-07T09:19:45;15.52;;;8.77;;
71496;SDS011;59317;53.218;5.730;2023-05-07T09:22:12;16.42;;;9.18;;
71496;SDS011;59317;53.218;5.730;2023-05-07T09:24:38;20.92;;;13.13;;
71496;SDS011;59317;53.218;5.730;2023-05-07T09:27:04;14.60;;;8.60;;
71496;SDS011;59317;53.218;5.730;2023-05-07T09:29:30;16.58;;;8.55;;
71496;SDS011;59317;53.218;5.730;2023-05-07T09:32:03;18.30;;;10.80;;
71496;SDS011;59317;53.218;5.730;2023-05-07T09:34:29;20.17;;;13.27;;
71496;SDS011;59317;53.218;5.730;2023-05-07T09:36:55;16.30;;;9.17;;
71496;SDS011;59317;53.218;5.730;2023-05-07T09:39:21;16.20;;;9.33;;
71496;SDS011;59317;53.218;5.730;2023-05-07T09:41:48;16.98;;;9.73;;
71496;SDS011;59317;53.218;5.730;2023-05-07T09:44:16;18.67;;;11.05;;
71496;SDS011;59317;53.218;5.730;2023-05-07T09:46:42;20.02;;;12.55;;
71496;SDS011;59317;53.218;5.730;2023-05-07T09:49:12;20.57;;;13.73;;
71496;SDS011;59317;53.218;5.730;2023-05-07T09:51:43;20.60;;;12.63;;
71496;SDS011;59317;53.218;5.730;2023-05-07T09:54:11;18.63;;;10.88;;
71496;SDS011;59317;53.218;5.730;2023-05-07T09:56:37;22.13;;;12.63;;
71496;SDS011;59317;53.218;5.730;2023-05-07T09:59:03;20.63;;;13.65;;
71496;SDS011;59317;53.218;5.730;2023-05-07T10:01:31;21.10;;;12.90;;
71496;SDS011;59317;53.218;5.730;2023-05-07T10:03:57;20.55;;;12.95;;
71496;SDS011;59317;53.218;5.730;2023-05-07T10:06:24;23.17;;;13.52;;
71496;SDS011;59317;53.218;5.730;2023-05-07T10:08:51;21.05;;;12.10;;
71496;SDS011;59317;53.218;5.730;2023-05-07T10:11:17;19.63;;;10.68;;
71496;SDS011;59317;53.218;5.730;2023-05-07T10:13:43;20.93;;;12.53;;
71496;SDS011;59317;53.218;5.730;2023-05-07T10:16:11;20.27;;;10.73;;
71496;SDS011;59317;53.218;5.730;2023-05-07T10:18:38;21.67;;;12.73;;
71496;SDS011;59317;53.218;5.730;2023-05-07T10:21:08;21.17;;;13.65;;
71496;SDS011;59317;53.218;5.730;2023-05-07T10:23:34;19.55;;;13.00;;
71496;SDS011;59317;53.218;5.730;2023-05-07T10:26:02;17.63;;;10.15;;
71496;SDS011;59317;53.218;5.730;2023-05-07T10:28:28;16.40;;;9.17;;
71496;SDS011;59317;53.218;5.730;2023-05-07T10:33:26;18.47;;;11.07;;
71496;SDS011;59317;53.218;5.730;2023-05-07T10:35:55;18.48;;;10.73;;
71496;SDS011;59317;53.218;5.730;2023-05-07T10:38:21;19.60;;;11.70;;
71496;SDS011;59317;53.218;5.730;2023-05-07T10:40:47;20.58;;;12.25;;
71496;SDS011;59317;53.218;5.730;2023-05-07T10:43:13;17.25;;;10.60;;
71496;SDS011;59317;53.218;5.730;2023-05-07T10:45:39;18.10;;;10.88;;
71496;SDS011;59317;53.218;5.730;2023-05-07T10:48:12;18.77;;;11.80;;
71496;SDS011;59317;53.218;5.730;2023-05-07T10:50:39;21.23;;;13.33;;
71496;SDS011;59317;53.218;5.730;2023-05-07T10:55:44;24.10;;;16.02;;
71496;SDS011;59317;53.218;5.730;2023-05-07T11:00:48;23.25;;;15.13;;
71496;SDS011;59317;53.218;5.730;2023-05-07T11:03:14;22.27;;;14.90;;
71496;SDS011;59317;53.218;5.730;2023-05-07T11:05:41;17.75;;;11.10;;
71496;SDS011;59317;53.218;5.730;2023-05-07T11:08:07;21.83;;;14.98;;
71496;SDS011;59317;53.218;5.730;2023-05-07T11:10:53;19.55;;;10.15;;
71496;SDS011;59317;53.218;5.730;2023-05-07T11:13:40;23.33;;;14.32;;
71496;SDS011;59317;53.218;5.730;2023-05-07T11:16:16;16.23;;;9.32;;
71496;SDS011;59317;53.218;5.730;2023-05-07T11:18:54;19.15;;;11.05;;
71496;SDS011;59317;53.218;5.730;2023-05-07T11:24:02;20.08;;;12.77;;
71496;SDS011;59317;53.218;5.730;2023-05-07T11:26:29;21.60;;;12.73;;
71496;SDS011;59317;53.218;5.730;2023-05-07T11:28:56;20.33;;;13.35;;
71496;SDS011;59317;53.218;5.730;2023-05-07T11:31:23;23.10;;;14.15;;
71496;SDS011;59317;53.218;5.730;2023-05-07T11:33:51;18.97;;;10.77;;
71496;SDS011;59317;53.218;5.730;2023-05-07T11:36:17;22.98;;;15.15;;
71496;SDS011;59317;53.218;5.730;2023-05-07T11:38:44;24.20;;;15.70;;
71496;SDS011;59317;53.218;5.730;2023-05-07T11:41:10;22.50;;;14.60;;
71496;SDS011;59317;53.218;5.730;2023-05-07T11:43:36;22.10;;;13.97;;
71496;SDS011;59317;53.218;5.730;2023-05-07T11:46:08;22.87;;;15.13;;
71496;SDS011;59317;53.218;5.730;2023-05-07T11:48:35;21.35;;;13.88;;
71496;SDS011;59317;53.218;5.730;2023-05-07T11:51:01;25.02;;;15.63;;
71496;SDS011;59317;53.218;5.730;2023-05-07T11:53:31;22.25;;;14.95;;
71496;SDS011;59317;53.218;5.730;2023-05-07T11:56:00;22.45;;;16.10;;
71496;SDS011;59317;53.218;5.730;2023-05-07T11:58:26;19.88;;;12.05;;
71496;SDS011;59317;53.218;5.730;2023-05-07T12:00:52;21.38;;;14.43;;
71496;SDS011;59317;53.218;5.730;2023-05-07T12:03:19;22.15;;;15.32;;
71496;SDS011;59317;53.218;5.730;2023-05-07T12:05:48;19.17;;;11.88;;
71496;SDS011;59317;53.218;5.730;2023-05-07T12:08:15;21.33;;;12.50;;
71496;SDS011;59317;53.218;5.730;2023-05-07T12:10:41;21.23;;;14.07;;
71496;SDS011;59317;53.218;5.730;2023-05-07T12:13:19;23.48;;;15.02;;
71496;SDS011;59317;53.218;5.730;2023-05-07T12:15:55;22.48;;;14.30;;
71496;SDS011;59317;53.218;5.730;2023-05-07T12:18:22;23.13;;;15.10;;
71496;SDS011;59317;53.218;5.730;2023-05-07T12:20:48;21.77;;;13.02;;
71496;SDS011;59317;53.218;5.730;2023-05-07T12:23:15;21.25;;;13.60;;
71496;SDS011;59317;53.218;5.730;2023-05-07T12:25:42;23.23;;;14.25;;
71496;SDS011;59317;53.218;5.730;2023-05-07T12:28:17;22.10;;;14.68;;
71496;SDS011;59317;53.218;5.730;2023-05-07T12:30:44;18.97;;;12.67;;
71496;SDS011;59317;53.218;5.730;2023-05-07T12:33:10;20.05;;;12.65;;
71496;SDS011;59317;53.218;5.730;2023-05-07T12:35:40;23.30;;;14.65;;
71496;SDS011;59317;53.218;5.730;2023-05-07T12:38:11;20.53;;;12.77;;
71496;SDS011;59317;53.218;5.730;2023-05-07T12:40:38;18.60;;;11.45;;
71496;SDS011;59317;53.218;5.730;2023-05-07T12:43:04;19.88;;;12.63;;
71496;SDS011;59317;53.218;5.730;2023-05-07T12:45:30;19.40;;;12.52;;
71496;SDS011;59317;53.218;5.730;2023-05-07T12:47:56;20.02;;;13.65;;
71496;SDS011;59317;53.218;5.730;2023-05-07T12:50:30;22.50;;;13.95;;
71496;SDS011;59317;53.218;5.730;2023-05-07T12:52:57;19.63;;;13.80;;
71496;SDS011;59317;53.218;5.730;2023-05-07T12:55:23;18.33;;;12.35;;
71496;SDS011;59317;53.218;5.730;2023-05-07T12:57:49;19.23;;;12.52;;
71496;SDS011;59317;53.218;5.730;2023-05-07T13:00:16;18.58;;;12.35;;
71496;SDS011;59317;53.218;5.730;2023-05-07T13:02:43;18.08;;;11.98;;
71496;SDS011;59317;53.218;5.730;2023-05-07T13:05:09;17.90;;;11.65;;
71496;SDS011;59317;53.218;5.730;2023-05-07T13:07:36;18.80;;;13.23;;
71496;SDS011;59317;53.218;5.730;2023-05-07T13:10:02;20.75;;;13.57;;
71496;SDS011;59317;53.218;5.730;2023-05-07T13:12:28;18.65;;;12.25;;
71496;SDS011;59317;53.218;5.730;2023-05-07T13:14:54;17.95;;;11.13;;
71496;SDS011;59317;53.218;5.730;2023-05-07T13:17:20;16.83;;;11.87;;
71496;SDS011;59317;53.218;5.730;2023-05-07T13:19:46;18.47;;;12.03;;
71496;SDS011;59317;53.218;5.730;2023-05-07T13:22:12;19.23;;;12.40;;
71496;SDS011;59317;53.218;5.730;2023-05-07T13:24:38;17.33;;;11.40;;
71496;SDS011;59317;53.218;5.730;2023-05-07T13:27:06;17.17;;;11.43;;
71496;SDS011;59317;53.218;5.730;2023-05-07T13:29:32;17.73;;;11.20;;
71496;SDS011;59317;53.218;5.730;2023-05-07T13:31:58;16.08;;;10.43;;
71496;SDS011;59317;53.218;5.730;2023-05-07T13:34:24;15.43;;;9.45;;
71496;SDS011;59317;53.218;5.730;2023-05-07T13:36:51;16.20;;;10.07;;
71496;SDS011;59317;53.218;5.730;2023-05-07T13:39:17;17.53;;;11.30;;
71496;SDS011;59317;53.218;5.730;2023-05-07T13:41:43;17.00;;;10.38;;
71496;SDS011;59317;53.218;5.730;2023-05-07T13:44:09;16.67;;;10.98;;
71496;SDS011;59317;53.218;5.730;2023-05-07T13:46:34;17.40;;;11.82;;
71496;SDS011;59317;53.218;5.730;2023-05-07T13:49:01;16.27;;;10.43;;
71496;SDS011;59317;53.218;5.730;2023-05-07T13:51:27;16.90;;;11.13;;
71496;SDS011;59317;53.218;5.730;2023-05-07T13:53:53;16.20;;;11.80;;
71496;SDS011;59317;53.218;5.730;2023-05-07T13:56:19;15.82;;;9.88;;
71496;SDS011;59317;53.218;5.730;2023-05-07T13:58:46;15.90;;;10.95;;
71496;SDS011;59317;53.218;5.730;2023-05-07T14:01:12;17.00;;;11.75;;
71496;SDS011;59317;53.218;5.730;2023-05-07T14:03:38;17.38;;;11.65;;
71496;SDS011;59317;53.218;5.730;2023-05-07T14:06:04;17.50;;;11.73;;
71496;SDS011;59317;53.218;5.730;2023-05-07T14:08:31;17.23;;;12.57;;
71496;SDS011;59317;53.218;5.730;2023-05-07T14:10:56;17.10;;;12.80;;
71496;SDS011;59317;53.218;5.730;2023-05-07T14:13:23;17.50;;;11.80;;
71496;SDS011;59317;53.218;5.730;2023-05-07T14:15:49;16.73;;;12.10;;
71496;SDS011;59317;53.218;5.730;2023-05-07T14:18:15;17.17;;;12.18;;
71496;SDS011;59317;53.218;5.730;2023-05-07T14:20:41;16.63;;;11.80;;
71496;SDS011;59317;53.218;5.730;2023-05-07T14:23:11;17.23;;;12.30;;
71496;SDS011;59317;53.218;5.730;2023-05-07T14:25:37;16.00;;;12.38;;
71496;SDS011;59317;53.218;5.730;2023-05-07T14:28:03;15.23;;;11.25;;
71496;SDS011;59317;53.218;5.730;2023-05-07T14:30:29;18.52;;;12.55;;